Time,TemperatureF,DewpointF,PressureIn,WindDirection,WindDirectionDegrees,WindSpeedMPH,WindSpeedGustMPH,Humidity,HourlyPrecipIn,Conditions,Clouds,dailyrainin,SoftwareType,DateUTC
2013-05-21 00:02:00,48.0,40.0,-100.00,North,5,16.0,24.0,74,-99.99,,,-99.99,,2013-05-21 06:02:00,
2013-05-21 00:12:00,48.0,40.0,-100.00,North,5,16.0,24.0,74,-99.99,,,-99.99,,2013-05-21 06:12:00,
2013-05-21 00:21:00,48.0,41.0,-100.00,North,5,11.0,17.0,77,-99.99,,,-99.99,,2013-05-21 06:21:00,
2013-05-21 00:32:00,48.0,37.0,-100.00,North,0,22.0,30.0,65,-99.99,,,-99.99,,2013-05-21 06:32:00,
2013-05-21 00:42:00,48.0,37.0,-100.00,North,0,22.0,30.0,65,-99.99,,,-99.99,,2013-05-21 06:42:00,
2013-05-21 00:52:00,48.0,35.0,-100.00,North,0,21.0,28.0,62,-99.99,,,-99.99,,2013-05-21 06:52:00,
2013-05-21 01:01:00,46.0,37.0,-100.00,NNE,20,17.0,25.0,72,-99.99,,,-99.99,,2013-05-21 07:01:00,
2013-05-21 01:11:00,46.0,37.0,-100.00,NNE,20,17.0,25.0,72,-99.99,,,-99.99,,2013-05-21 07:11:00,
2013-05-21 01:22:00,46.0,37.0,-100.00,NNE,20,17.0,25.0,72,-99.99,,,-99.99,,2013-05-21 07:22:00,
2013-05-21 01:31:00,45.0,38.0,-100.00,North,0,13.0,19.0,76,-99.99,,,-99.99,,2013-05-21 07:31:00,
2013-05-21 01:41:00,45.0,38.0,-100.00,North,0,13.0,19.0,76,-99.99,,,-99.99,,2013-05-21 07:41:00,
2013-05-21 01:52:00,45.0,38.0,-100.00,North,0,14.0,21.0,76,-99.99,,,-99.99,,2013-05-21 07:52:00,
2013-05-21 02:02:00,44.0,37.0,-100.00,North,355,19.0,21.0,76,-99.99,,,-99.99,,2013-05-21 08:02:00,
2013-05-21 02:11:00,44.0,37.0,-100.00,North,355,19.0,21.0,76,-99.99,,,-99.99,,2013-05-21 08:11:00,
2013-05-21 02:21:00,44.0,37.0,-100.00,North,0,20.0,26.0,75,-99.99,,,-99.99,,2013-05-21 08:21:00,
2013-05-21 02:31:00,44.0,36.0,-100.00,North,0,19.0,27.0,74,-99.99,,,-99.99,,2013-05-21 08:31:00,
2013-05-21 02:41:00,44.0,36.0,-100.00,North,0,19.0,27.0,74,-99.99,,,-99.99,,2013-05-21 08:41:00,
2013-05-21 02:52:00,43.0,36.0,-100.00,North,0,18.0,24.0,75,-99.99,,,-99.99,,2013-05-21 08:52:00,
2013-05-21 03:01:00,43.0,36.0,-100.00,North,0,17.0,24.0,76,-99.99,,,-99.99,,2013-05-21 09:01:00,
2013-05-21 03:11:00,43.0,36.0,-100.00,North,0,17.0,24.0,76,-99.99,,,-99.99,,2013-05-21 09:11:00,
2013-05-21 03:21:00,43.0,36.0,-100.00,North,0,17.0,24.0,76,-99.99,,,-99.99,,2013-05-21 09:21:00,
2013-05-21 03:32:00,43.0,36.0,-100.00,NNW,345,17.0,23.0,77,-99.99,,,-99.99,,2013-05-21 09:32:00,
2013-05-21 03:42:00,43.0,36.0,-100.00,NNW,345,17.0,23.0,77,-99.99,,,-99.99,,2013-05-21 09:42:00,
2013-05-21 03:52:00,43.0,36.0,-100.00,North,355,19.0,26.0,77,-99.99,,,-99.99,,2013-05-21 09:52:00,
2013-05-21 04:02:00,43.0,36.0,-100.00,North,350,17.0,25.0,77,-99.99,,,-99.99,,2013-05-21 10:02:00,
2013-05-21 04:12:00,43.0,36.0,-100.00,North,350,17.0,25.0,77,-99.99,,,-99.99,,2013-05-21 10:12:00,
2013-05-21 04:22:00,43.0,36.0,-100.00,North,355,19.0,23.0,77,-99.99,,,-99.99,,2013-05-21 10:22:00,
2013-05-21 04:32:00,42.0,36.0,-100.00,North,355,19.0,26.0,78,-99.99,,,-99.99,,2013-05-21 10:32:00,
2013-05-21 04:42:00,42.0,36.0,-100.00,North,355,19.0,26.0,78,-99.99,,,-99.99,,2013-05-21 10:42:00,
2013-05-21 04:52:00,42.0,36.0,-100.00,North,350,18.0,24.0,78,-99.99,,,-99.99,,2013-05-21 10:52:00,
2013-05-21 05:02:00,42.0,36.0,-100.00,North,0,17.0,22.0,79,-99.99,,,-99.99,,2013-05-21 11:02:00,
2013-05-21 05:12:00,42.0,36.0,-100.00,North,0,17.0,22.0,79,-99.99,,,-99.99,,2013-05-21 11:12:00,
2013-05-21 05:21:00,42.0,36.0,-100.00,North,355,17.0,22.0,79,-99.99,,,-99.99,,2013-05-21 11:21:00,
2013-05-21 05:32:00,42.0,37.0,-100.00,North,350,17.0,23.0,80,-99.99,,,-99.99,,2013-05-21 11:32:00,
2013-05-21 05:41:00,42.0,37.0,-100.00,North,350,17.0,23.0,80,-99.99,,,-99.99,,2013-05-21 11:41:00,
2013-05-21 05:51:00,42.0,37.0,-100.00,North,0,20.0,28.0,80,-99.99,,,-99.99,,2013-05-21 11:51:00,
2013-05-21 06:01:00,42.0,37.0,-100.00,North,0,17.0,25.0,80,-99.99,,,-99.99,,2013-05-21 12:01:00,
2013-05-21 06:11:00,42.0,37.0,-100.00,North,0,17.0,25.0,80,-99.99,,,-99.99,,2013-05-21 12:11:00,
2013-05-21 06:21:00,42.0,36.0,-100.00,North,355,19.0,24.0,80,-99.99,,,-99.99,,2013-05-21 12:21:00,
2013-05-21 06:32:00,42.0,36.0,-100.00,North,350,21.0,26.0,80,-99.99,,,-99.99,,2013-05-21 12:32:00,
2013-05-21 06:42:00,42.0,36.0,-100.00,North,350,21.0,26.0,80,-99.99,,,-99.99,,2013-05-21 12:42:00,
2013-05-21 06:51:00,42.0,36.0,-100.00,North,350,18.0,26.0,80,-99.99,,,-99.99,,2013-05-21 12:51:00,
2013-05-21 07:01:00,42.0,36.0,-100.00,North,0,16.0,24.0,80,-99.99,,,-99.99,,2013-05-21 13:01:00,
2013-05-21 07:12:00,42.0,36.0,-100.00,North,0,16.0,24.0,80,-99.99,,,-99.99,,2013-05-21 13:12:00,
2013-05-21 07:22:00,42.0,36.0,-100.00,North,0,20.0,24.0,80,-99.99,,,-99.99,,2013-05-21 13:22:00,
2013-05-21 07:32:00,42.0,36.0,-100.00,North,355,18.0,22.0,80,-99.99,,,-99.99,,2013-05-21 13:32:00,
2013-05-21 07:41:00,42.0,36.0,-100.00,North,355,18.0,22.0,80,-99.99,,,-99.99,,2013-05-21 13:41:00,
2013-05-21 07:52:00,42.0,36.0,-100.00,North,0,19.0,25.0,79,-99.99,,,-99.99,,2013-05-21 13:52:00,
2013-05-21 08:01:00,42.0,36.0,-100.00,North,0,19.0,22.0,78,-99.99,,,-99.99,,2013-05-21 14:01:00,
2013-05-21 08:11:00,42.0,36.0,-100.00,North,0,19.0,22.0,78,-99.99,,,-99.99,,2013-05-21 14:11:00,
2013-05-21 08:21:00,42.0,36.0,-100.00,North,5,19.0,30.0,78,-99.99,,,-99.99,,2013-05-21 14:21:00,
2013-05-21 08:32:00,43.0,36.0,-100.00,North,0,17.0,22.0,78,-99.99,,,-99.99,,2013-05-21 14:32:00,
2013-05-21 08:41:00,43.0,36.0,-100.00,North,0,17.0,22.0,78,-99.99,,,-99.99,,2013-05-21 14:41:00,
2013-05-21 08:51:00,43.0,37.0,-100.00,North,355,14.0,20.0,79,-99.99,,,-99.99,,2013-05-21 14:51:00,
2013-05-21 09:01:00,43.0,35.0,-100.00,North,0,18.0,25.0,73,-99.99,,,-99.99,,2013-05-21 15:01:00,
2013-05-21 09:11:00,43.0,35.0,-100.00,North,0,18.0,25.0,73,-99.99,,,-99.99,,2013-05-21 15:11:00,
2013-05-21 09:21:00,43.0,35.0,-100.00,North,5,17.0,22.0,73,-99.99,,,-99.99,,2013-05-21 15:21:00,
2013-05-21 09:33:00,44.0,35.0,-100.00,North,0,18.0,29.0,70,-99.99,,,-99.99,,2013-05-21 15:33:00,
2013-05-21 09:42:00,44.0,35.0,-100.00,North,0,18.0,29.0,70,-99.99,,,-99.99,,2013-05-21 15:42:00,
2013-05-21 09:52:00,43.0,35.0,-100.00,North,0,19.0,24.0,72,-99.99,,,-99.99,,2013-05-21 15:52:00,
2013-05-21 10:03:00,44.0,35.0,-100.00,North,0,18.0,24.0,72,-99.99,,,-99.99,,2013-05-21 16:03:00,
2013-05-21 10:13:00,44.0,35.0,-100.00,North,0,18.0,24.0,72,-99.99,,,-99.99,,2013-05-21 16:13:00,
2013-05-21 10:23:00,44.0,35.0,-100.00,North,355,19.0,22.0,69,-99.99,,,-99.99,,2013-05-21 16:23:00,
2013-05-21 10:32:00,44.0,36.0,-100.00,North,5,17.0,22.0,72,-99.99,,,-99.99,,2013-05-21 16:32:00,
2013-05-21 10:42:00,44.0,36.0,-100.00,North,5,17.0,22.0,72,-99.99,,,-99.99,,2013-05-21 16:42:00,
2013-05-21 10:52:00,44.0,35.0,-100.00,North,0,18.0,24.0,70,-99.99,,,-99.99,,2013-05-21 16:52:00,
2013-05-21 11:02:00,44.0,37.0,-100.00,North,0,14.0,22.0,76,-99.99,,,-99.99,,2013-05-21 17:02:00,
2013-05-21 11:12:00,44.0,37.0,-100.00,North,0,14.0,22.0,76,-99.99,,,-99.99,,2013-05-21 17:12:00,
2013-05-21 11:23:00,43.0,37.0,-100.00,North,5,17.0,24.0,78,-99.99,,,-99.99,,2013-05-21 17:23:00,
2013-05-21 11:32:00,44.0,36.0,-100.00,NNE,20,19.0,24.0,74,-99.99,,,-99.99,,2013-05-21 17:32:00,
2013-05-21 11:43:00,44.0,36.0,-100.00,NNE,20,19.0,24.0,74,-99.99,,,-99.99,,2013-05-21 17:43:00,
2013-05-21 11:52:00,44.0,36.0,-100.00,NNE,20,19.0,24.0,73,-99.99,,,-99.99,,2013-05-21 17:52:00,
2013-05-21 12:02:00,44.0,37.0,-100.00,NNE,20,14.0,22.0,76,-99.99,,,-99.99,,2013-05-21 18:02:00,
2013-05-21 12:12:00,44.0,37.0,-100.00,NNE,20,14.0,22.0,76,-99.99,,,-99.99,,2013-05-21 18:12:00,
2013-05-21 12:22:00,44.0,38.0,-100.00,NNE,15,16.0,20.0,78,-99.99,,,-99.99,,2013-05-21 18:22:00,
2013-05-21 12:32:00,44.0,38.0,-100.00,North,5,17.0,19.0,78,-99.99,,,-99.99,,2013-05-21 18:32:00,
2013-05-21 12:42:00,44.0,38.0,-100.00,North,5,17.0,19.0,78,-99.99,,,-99.99,,2013-05-21 18:42:00,
2013-05-21 12:51:00,44.0,38.0,-100.00,North,10,15.0,21.0,78,-99.99,,,-99.99,,2013-05-21 18:51:00,
2013-05-21 13:01:00,44.0,38.0,-100.00,North,0,14.0,19.0,76,-99.99,,,-99.99,,2013-05-21 19:01:00,
2013-05-21 13:11:00,44.0,38.0,-100.00,North,0,14.0,19.0,76,-99.99,,,-99.99,,2013-05-21 19:11:00,
2013-05-21 13:21:00,44.0,38.0,-100.00,North,0,14.0,18.0,77,-99.99,,,-99.99,,2013-05-21 19:21:00,
2013-05-21 13:32:00,45.0,38.0,-100.00,North,10,13.0,18.0,78,-99.99,,,-99.99,,2013-05-21 19:32:00,
2013-05-21 13:42:00,45.0,38.0,-100.00,North,10,13.0,18.0,78,-99.99,,,-99.99,,2013-05-21 19:42:00,
2013-05-21 13:52:00,45.0,38.0,-100.00,North,10,13.0,20.0,77,-99.99,,,-99.99,,2013-05-21 19:52:00,
2013-05-21 14:03:00,45.0,39.0,-100.00,North,5,14.0,17.0,78,-99.99,,,-99.99,,2013-05-21 20:03:00,
2013-05-21 14:11:00,45.0,39.0,-100.00,North,5,14.0,17.0,78,-99.99,,,-99.99,,2013-05-21 20:11:00,
2013-05-21 14:22:00,45.0,38.0,-100.00,NNE,15,14.0,18.0,77,-99.99,,,-99.99,,2013-05-21 20:22:00,
2013-05-21 14:32:00,45.0,39.0,-100.00,NNE,15,12.0,16.0,78,-99.99,,,-99.99,,2013-05-21 20:32:00,
2013-05-21 14:42:00,45.0,39.0,-100.00,NNE,15,12.0,16.0,78,-99.99,,,-99.99,,2013-05-21 20:42:00,
2013-05-21 14:52:00,46.0,40.0,-100.00,North,5,11.0,14.0,78,-99.99,,,-99.99,,2013-05-21 20:52:00,
2013-05-21 15:02:00,46.0,40.0,-100.00,NNE,20,12.0,15.0,78,-99.99,,,-99.99,,2013-05-21 21:02:00,
2013-05-21 15:11:00,46.0,40.0,-100.00,NNE,20,12.0,15.0,78,-99.99,,,-99.99,,2013-05-21 21:11:00,
2013-05-21 15:21:00,46.0,40.0,-100.00,NNE,15,11.0,16.0,78,-99.99,,,-99.99,,2013-05-21 21:21:00,
2013-05-21 15:33:00,47.0,41.0,-100.00,North,10,11.0,16.0,80,-99.99,,,-99.99,,2013-05-21 21:33:00,
2013-05-21 15:43:00,47.0,41.0,-100.00,North,10,11.0,16.0,80,-99.99,,,-99.99,,2013-05-21 21:43:00,
2013-05-21 15:53:00,47.0,41.0,-100.00,North,5,11.0,16.0,80,-99.99,,,-99.99,,2013-05-21 21:53:00,
2013-05-21 16:02:00,48.0,41.0,-100.00,NNE,20,12.0,23.0,77,-99.99,,,-99.99,,2013-05-21 22:02:00,
2013-05-21 16:12:00,48.0,41.0,-100.00,NNE,20,12.0,23.0,77,-99.99,,,-99.99,,2013-05-21 22:12:00,
2013-05-21 16:22:00,48.0,41.0,-100.00,NNE,15,14.0,22.0,76,-99.99,,,-99.99,,2013-05-21 22:22:00,
2013-05-21 16:33:00,48.0,40.0,-100.00,NNE,15,17.0,21.0,73,-99.99,,,-99.99,,2013-05-21 22:33:00,
2013-05-21 16:42:00,48.0,40.0,-100.00,NNE,15,17.0,21.0,73,-99.99,,,-99.99,,2013-05-21 22:42:00,
2013-05-21 16:52:00,48.0,40.0,-100.00,NNE,20,16.0,19.0,73,-99.99,,,-99.99,,2013-05-21 22:52:00,
2013-05-21 17:02:00,49.0,41.0,-100.00,NNE,20,13.0,21.0,74,-99.99,,,-99.99,,2013-05-21 23:02:00,
2013-05-21 17:12:00,49.0,41.0,-100.00,NNE,20,13.0,21.0,74,-99.99,,,-99.99,,2013-05-21 23:12:00,
2013-05-21 17:22:00,48.0,41.0,-100.00,NNE,30,16.0,20.0,76,-99.99,,,-99.99,,2013-05-21 23:22:00,
2013-05-21 17:32:00,48.0,42.0,-100.00,NNE,20,13.0,17.0,78,-99.99,,,-99.99,,2013-05-21 23:32:00,
2013-05-21 17:42:00,48.0,42.0,-100.00,NNE,20,13.0,17.0,78,-99.99,,,-99.99,,2013-05-21 23:42:00,
2013-05-21 17:52:00,48.0,42.0,-100.00,NNE,20,11.0,16.0,79,-99.99,,,-99.99,,2013-05-21 23:52:00,
2013-05-21 18:01:00,48.0,42.0,-100.00,NNE,25,16.0,18.0,80,-99.99,,,-99.99,,2013-05-22 00:01:00,
2013-05-21 18:11:00,48.0,42.0,-100.00,NNE,25,16.0,18.0,80,-99.99,,,-99.99,,2013-05-22 00:11:00,
2013-05-21 18:21:00,48.0,42.0,-100.00,NNE,30,12.0,24.0,80,-99.99,,,-99.99,,2013-05-22 00:21:00,
2013-05-21 18:32:00,48.0,42.0,-100.00,NE,40,12.0,19.0,80,-99.99,,,-99.99,,2013-05-22 00:32:00,
2013-05-21 18:41:00,48.0,42.0,-100.00,NE,40,12.0,19.0,80,-99.99,,,-99.99,,2013-05-22 00:41:00,
2013-05-21 18:51:00,48.0,42.0,-100.00,NE,40,14.0,16.0,80,-99.99,,,-99.99,,2013-05-22 00:51:00,
2013-05-21 19:01:00,47.0,41.0,-100.00,NE,55,16.0,21.0,79,-99.99,,,-99.99,,2013-05-22 01:01:00,
2013-05-21 19:11:00,47.0,41.0,-100.00,NE,55,16.0,21.0,79,-99.99,,,-99.99,,2013-05-22 01:11:00,
2013-05-21 19:21:00,47.0,42.0,-100.00,NE,55,14.0,23.0,80,-99.99,,,-99.99,,2013-05-22 01:21:00,
2013-05-21 19:32:00,47.0,42.0,-100.00,NE,50,11.0,18.0,80,-99.99,,,-99.99,,2013-05-22 01:32:00,
2013-05-21 19:42:00,47.0,42.0,-100.00,NE,50,11.0,18.0,80,-99.99,,,-99.99,,2013-05-22 01:42:00,
2013-05-21 19:52:00,47.0,42.0,-100.00,NE,55,12.0,16.0,80,-99.99,,,-99.99,,2013-05-22 01:52:00,
2013-05-21 20:01:00,47.0,41.0,-100.00,NE,55,15.0,20.0,78,-99.99,,,-99.99,,2013-05-22 02:01:00,
2013-05-21 20:11:00,47.0,41.0,-100.00,NE,55,15.0,20.0,78,-99.99,,,-99.99,,2013-05-22 02:11:00,
2013-05-21 20:21:00,47.0,41.0,-100.00,ENE,60,11.0,18.0,78,-99.99,,,-99.99,,2013-05-22 02:21:00,
2013-05-21 20:32:00,47.0,41.0,-100.00,ENE,65,9.0,12.0,78,-99.99,,,-99.99,,2013-05-22 02:32:00,
2013-05-21 20:42:00,47.0,41.0,-100.00,ENE,65,9.0,12.0,78,-99.99,,,-99.99,,2013-05-22 02:42:00,
2013-05-21 20:51:00,47.0,41.0,-100.00,ENE,60,9.0,11.0,78,-99.99,,,-99.99,,2013-05-22 02:51:00,
2013-05-21 21:01:00,47.0,41.0,-100.00,NE,45,9.0,12.0,79,-99.99,,,-99.99,,2013-05-22 03:01:00,
2013-05-21 21:11:00,47.0,41.0,-100.00,NE,45,9.0,12.0,79,-99.99,,,-99.99,,2013-05-22 03:11:00,
2013-05-21 21:21:00,47.0,41.0,-100.00,NE,45,9.0,12.0,78,-99.99,,,-99.99,,2013-05-22 03:21:00,
2013-05-21 21:33:00,47.0,41.0,-100.00,NE,45,7.0,11.0,78,-99.99,,,-99.99,,2013-05-22 03:33:00,
2013-05-21 21:43:00,47.0,41.0,-100.00,NE,45,7.0,11.0,78,-99.99,,,-99.99,,2013-05-22 03:43:00,
2013-05-21 21:53:00,47.0,41.0,-100.00,NE,40,7.0,10.0,78,-99.99,,,-99.99,,2013-05-22 03:53:00,
2013-05-21 22:03:00,47.0,41.0,-100.00,NNE,30,16.0,20.0,77,-99.99,,,-99.99,,2013-05-22 04:03:00,
2013-05-21 22:13:00,47.0,41.0,-100.00,NNE,30,16.0,20.0,77,-99.99,,,-99.99,,2013-05-22 04:13:00,
2013-05-21 22:23:00,48.0,40.0,-100.00,NE,55,22.0,28.0,72,-99.99,,,-99.99,,2013-05-22 04:23:00,
2013-05-21 22:33:00,48.0,40.0,-100.00,ENE,70,24.0,30.0,74,-99.99,,,-99.99,,2013-05-22 04:33:00,
2013-05-21 22:43:00,48.0,40.0,-100.00,ENE,70,24.0,30.0,74,-99.99,,,-99.99,,2013-05-22 04:43:00,
2013-05-21 22:53:00,48.0,41.0,-100.00,ENE,70,19.0,27.0,77,-99.99,,,-99.99,,2013-05-22 04:53:00,
2013-05-21 23:02:00,48.0,41.0,-100.00,East,95,17.0,21.0,76,-99.99,,,-99.99,,2013-05-22 05:02:00,
2013-05-21 23:12:00,48.0,41.0,-100.00,East,95,17.0,21.0,76,-99.99,,,-99.99,,2013-05-22 05:12:00,
2013-05-21 23:21:00,48.0,40.0,-100.00,East,100,14.0,21.0,76,-99.99,,,-99.99,,2013-05-22 05:21:00,
2013-05-21 23:32:00,48.0,40.0,-100.00,East,80,12.0,17.0,76,-99.99,,,-99.99,,2013-05-22 05:32:00,
2013-05-21 23:42:00,48.0,40.0,-100.00,East,80,12.0,17.0,76,-99.99,,,-99.99,,2013-05-22 05:42:00,
2013-05-21 23:52:00,47.0,40.0,-100.00,ENE,75,12.0,16.0,76,-99.99,,,-99.99,,2013-05-22 05:52:00,